createdAt,value
2022-11-05T00:04:38.573Z,7.55
2022-11-05T00:09:43.529Z,6.57
2022-11-05T00:15:04.444Z,6.68
2022-11-05T00:20:10.086Z,6.28
2022-11-05T00:25:17.790Z,7.28
2022-11-05T00:30:24.494Z,6.50
2022-11-05T00:35:28.054Z,5.88
2022-11-05T00:40:32.981Z,5.55
2022-11-05T00:45:37.780Z,5.78
2022-11-05T00:50:41.523Z,4.80
2022-11-05T00:55:47.873Z,5.13
2022-11-05T01:00:53.987Z,5.25
2022-11-05T01:05:59.443Z,4.70
2022-11-05T01:11:10.620Z,5.57
2022-11-05T01:21:17.376Z,5.07
2022-11-05T01:26:22.315Z,5.13
2022-11-05T01:31:26.115Z,4.53
2022-11-05T01:36:29.684Z,4.68
2022-11-05T01:41:34.563Z,4.18
2022-11-05T01:46:44.045Z,4.97
2022-11-05T01:51:48.262Z,4.15
2022-11-05T01:56:56.978Z,4.57
2022-11-05T02:02:02.315Z,4.78
2022-11-05T02:07:08.808Z,4.75
2022-11-05T02:12:15.811Z,4.05
2022-11-05T02:17:30.049Z,5.07
2022-11-05T02:23:20.963Z,4.63
2022-11-05T02:28:48.053Z,4.55
2022-11-05T02:34:00.118Z,4.53
2022-11-05T02:39:13.026Z,4.88
2022-11-05T02:44:27.657Z,4.78
2022-11-05T02:49:42.692Z,4.20
2022-11-05T02:54:55.226Z,4.57
2022-11-05T03:00:02.570Z,4.32
2022-11-05T03:05:08.022Z,3.65
2022-11-05T03:10:28.360Z,4.00
2022-11-05T03:15:48.693Z,2.70
2022-11-05T03:21:01.858Z,1.97
2022-11-05T03:26:09.672Z,3.45
2022-11-05T03:31:16.860Z,3.63
2022-11-05T03:36:27.741Z,3.50
2022-11-05T03:41:34.288Z,3.65
2022-11-05T03:46:42.548Z,3.97
2022-11-05T03:51:55.376Z,4.38
2022-11-05T03:57:05.969Z,4.38
2022-11-05T04:02:10.583Z,3.17
2022-11-05T04:07:32.977Z,3.78
2022-11-05T04:12:53.874Z,4.03
2022-11-05T04:17:58.864Z,3.47
2022-11-05T04:23:23.587Z,4.18
2022-11-05T04:28:47.061Z,4.20
2022-11-05T04:33:50.567Z,3.85
2022-11-05T04:38:55.416Z,4.03
2022-11-05T04:43:58.895Z,5.10
2022-11-05T04:49:02.371Z,4.25
2022-11-05T04:54:07.292Z,4.63
2022-11-05T04:59:10.800Z,4.47
2022-11-05T05:04:14.610Z,5.57
2022-11-05T05:09:19.513Z,5.40
2022-11-05T05:14:22.987Z,6.00
2022-11-05T05:19:27.157Z,5.95
2022-11-05T05:24:31.925Z,6.32
2022-11-05T05:29:35.403Z,6.53
2022-11-05T05:34:39.032Z,6.60
2022-11-05T05:39:44.627Z,6.57
2022-11-05T05:44:48.182Z,7.32
2022-11-05T05:49:51.664Z,7.47
2022-11-05T05:54:56.464Z,6.72
2022-11-05T06:00:01.836Z,7.72
2022-11-05T06:05:15.260Z,7.28
2022-11-05T06:10:20.281Z,8.35
2022-11-05T06:15:23.783Z,8.55
2022-11-05T06:20:27.346Z,9.40
2022-11-05T06:25:34.044Z,8.13
2022-11-05T06:30:40.580Z,8.93
2022-11-05T06:35:44.095Z,8.43
2022-11-05T06:40:48.999Z,9.57
2022-11-05T06:45:52.489Z,10.00
2022-11-05T06:50:55.978Z,9.55
2022-11-05T06:56:03.230Z,8.98
2022-11-05T07:01:09.227Z,9.85
2022-11-05T07:06:12.697Z,10.80
2022-11-05T07:11:17.540Z,10.93
2022-11-05T07:16:21.013Z,10.43
2022-11-05T07:21:24.507Z,11.32
2022-11-05T07:26:34.369Z,10.73
2022-11-05T07:31:38.287Z,8.60
2022-11-05T07:36:41.857Z,11.40
2022-11-05T07:41:46.901Z,11.18
2022-11-05T07:46:50.756Z,12.15
2022-11-05T07:51:54.306Z,19.42
2022-11-05T07:56:59.255Z,12.65
2022-11-05T08:02:03.084Z,12.25
2022-11-05T08:07:06.849Z,12.48
2022-11-05T08:12:11.923Z,12.45
2022-11-05T08:17:18.430Z,13.95
2022-11-05T08:22:22.205Z,15.38
2022-11-05T08:27:27.187Z,15.25
2022-11-05T08:32:30.836Z,12.00
2022-11-05T08:37:34.303Z,11.20
2022-11-05T08:42:39.224Z,11.73
2022-11-05T08:47:42.798Z,11.20
2022-11-05T08:52:46.374Z,11.15
2022-11-05T08:57:56.291Z,12.07
2022-11-05T09:03:00.902Z,11.68
2022-11-05T09:08:05.291Z,12.45
2022-11-05T09:13:17.740Z,11.48
2022-11-05T09:18:22.412Z,10.90
2022-11-05T09:23:26.092Z,10.55
2022-11-05T09:28:31.672Z,10.45
2022-11-05T09:33:37.149Z,10.43
2022-11-05T09:38:40.663Z,10.05
2022-11-05T09:43:49.803Z,9.93
2022-11-05T09:48:58.463Z,9.00
2022-11-05T09:54:02.974Z,9.48
2022-11-05T09:59:15.782Z,10.20
2022-11-05T10:04:24.239Z,9.90
2022-11-05T10:09:32.498Z,9.80
2022-11-05T10:14:41.460Z,9.10
2022-11-05T10:19:50.845Z,10.07
2022-11-05T10:24:56.202Z,8.15
2022-11-05T10:30:01.702Z,6.80
2022-11-05T10:35:07.496Z,5.82
2022-11-05T10:40:19.757Z,6.45
2022-11-05T10:45:33.813Z,6.65
2022-11-05T10:50:39.486Z,7.60
2022-11-05T10:55:45.877Z,5.97
2022-11-05T11:01:06.171Z,6.10
2022-11-05T11:06:21.113Z,4.70
2022-11-05T11:11:31.959Z,6.47
2022-11-05T11:16:40.150Z,5.82
2022-11-05T11:21:43.956Z,5.80
2022-11-05T11:26:47.823Z,6.85
2022-11-05T11:31:57.210Z,6.05
2022-11-05T11:37:12.856Z,5.43
2022-11-05T11:42:23.298Z,6.05
2022-11-05T11:47:30.375Z,5.72
2022-11-05T11:52:36.233Z,5.78
2022-11-05T11:57:45.402Z,5.25
2022-11-05T12:03:14.952Z,5.72
2022-11-05T12:08:45.606Z,5.63
2022-11-05T12:13:59.737Z,6.10
2022-11-05T12:19:13.302Z,5.05
2022-11-05T12:24:35.921Z,6.50
2022-11-05T12:29:58.741Z,4.30
2022-11-05T12:35:15.477Z,5.25
2022-11-05T12:40:42.993Z,5.43
2022-11-05T12:45:51.971Z,5.45
2022-11-05T12:51:05.674Z,5.50
2022-11-05T12:56:16.885Z,5.40
2022-11-05T13:06:33.012Z,6.20
2022-11-05T13:11:40.913Z,6.78
2022-11-05T13:16:47.515Z,6.93
2022-11-05T13:21:57.826Z,6.78
2022-11-05T13:27:13.328Z,6.60
2022-11-05T13:32:28.376Z,6.68
2022-11-05T13:37:55.113Z,6.30
2022-11-05T13:43:22.791Z,6.88
2022-11-05T13:49:05.905Z,6.45
2022-11-05T13:54:41.919Z,6.60
2022-11-05T14:00:02.350Z,6.22
2022-11-05T14:05:20.429Z,6.75
2022-11-05T14:10:35.825Z,5.78
2022-11-05T14:15:39.645Z,6.15
2022-11-05T14:20:59.342Z,8.05
2022-11-05T14:26:19.896Z,6.22
2022-11-05T14:32:02.447Z,6.05
2022-11-05T14:37:28.935Z,5.10
2022-11-05T14:42:33.929Z,3.80
2022-11-05T14:47:42.023Z,4.03
2022-11-05T14:52:53.328Z,4.00
2022-11-05T14:58:32.441Z,3.85
2022-11-05T15:04:06.965Z,4.13
2022-11-05T15:09:35.282Z,4.43
2022-11-05T15:14:50.441Z,4.22
2022-11-05T15:19:55.185Z,4.88
2022-11-05T15:24:59.872Z,4.32
2022-11-05T15:30:15.980Z,4.35
2022-11-05T15:35:26.896Z,5.10
2022-11-05T15:40:33.331Z,5.25
2022-11-05T15:45:38.301Z,4.47
2022-11-05T15:50:42.211Z,4.05
2022-11-05T15:55:57.562Z,4.65
2022-11-05T16:01:02.745Z,4.03
2022-11-05T16:06:10.761Z,3.83
2022-11-05T16:11:22.950Z,5.95
2022-11-05T16:16:34.389Z,3.80
2022-11-05T16:21:54.724Z,4.15
2022-11-05T16:27:03.433Z,4.07
2022-11-05T16:32:18.084Z,4.57
2022-11-05T16:37:24.868Z,4.70
2022-11-05T16:42:41.419Z,4.38
2022-11-05T16:47:47.257Z,3.70
2022-11-05T16:52:51.298Z,3.63
2022-11-05T16:57:56.657Z,4.32
2022-11-05T17:03:01.676Z,4.38
2022-11-05T17:08:05.855Z,4.57
2022-11-05T17:13:14.203Z,3.92
2022-11-05T17:18:20.150Z,4.38
2022-11-05T17:23:26.831Z,3.97
2022-11-05T17:28:30.795Z,3.85
2022-11-05T17:33:36.575Z,4.40
2022-11-05T17:38:40.782Z,4.65
2022-11-05T17:43:44.895Z,4.43
2022-11-05T17:48:50.044Z,3.95
2022-11-05T17:53:53.718Z,3.75
2022-11-05T17:58:57.274Z,3.85
2022-11-05T18:04:08.222Z,3.78
2022-11-05T18:09:13.076Z,4.00
2022-11-05T18:14:21.314Z,4.22
2022-11-05T18:19:29.241Z,4.82
2022-11-05T18:24:33.329Z,7.78
2022-11-05T18:29:37.170Z,4.53
2022-11-05T18:34:42.193Z,4.88
2022-11-05T18:39:46.674Z,4.30
2022-11-05T18:44:50.439Z,4.90
2022-11-05T18:49:55.394Z,4.53
2022-11-05T18:54:59.369Z,4.60
2022-11-05T19:00:02.908Z,4.70
2022-11-05T19:10:32.275Z,6.38
2022-11-05T19:15:35.862Z,4.40
2022-11-05T19:20:41.609Z,4.35
2022-11-05T19:25:45.122Z,5.88
2022-11-05T19:30:48.679Z,4.30
2022-11-05T19:35:53.675Z,4.60
2022-11-05T19:40:57.321Z,4.88
2022-11-05T19:46:00.994Z,4.72
2022-11-05T19:51:08.039Z,4.22
2022-11-05T19:56:14.751Z,4.55
2022-11-05T20:01:19.347Z,5.10
2022-11-05T20:06:28.794Z,5.53
2022-11-05T20:11:32.985Z,5.85
2022-11-05T20:16:38.398Z,6.22
2022-11-05T20:21:44.472Z,5.97
2022-11-05T20:26:48.067Z,5.57
2022-11-05T20:31:52.207Z,5.38
2022-11-05T20:36:57.238Z,6.00
2022-11-05T20:42:01.715Z,6.40
2022-11-05T20:47:05.660Z,6.78
2022-11-05T20:52:10.795Z,5.65
2022-11-05T20:57:14.396Z,5.63
2022-11-05T21:02:18.041Z,6.18
2022-11-05T21:07:23.173Z,6.38
2022-11-05T21:12:27.648Z,6.60
2022-11-05T21:17:35.521Z,6.30
2022-11-05T21:22:43.199Z,6.72
2022-11-05T21:27:48.134Z,6.65
2022-11-05T21:32:51.777Z,6.93
2022-11-05T21:37:56.648Z,7.60
2022-11-05T21:43:00.067Z,8.57
2022-11-05T21:48:03.630Z,8.65
2022-11-05T21:53:30.609Z,8.25
2022-11-05T21:58:51.964Z,7.53
2022-11-05T22:04:00.269Z,20.20
2022-11-05T22:09:08.631Z,7.20
2022-11-05T22:14:12.273Z,6.68
2022-11-05T22:19:16.015Z,7.30
2022-11-05T22:24:21.519Z,7.20
2022-11-05T22:29:25.237Z,6.70
2022-11-05T22:34:28.957Z,6.65
2022-11-05T22:39:34.245Z,7.03
2022-11-05T22:44:38.435Z,7.22
2022-11-05T22:49:42.263Z,7.32
2022-11-05T22:54:47.796Z,6.65
2022-11-05T22:59:51.406Z,6.68
2022-11-05T23:04:55.063Z,7.40
2022-11-05T23:10:17.054Z,5.95
2022-11-05T23:15:34.669Z,7.63
2022-11-05T23:20:55.487Z,7.25
2022-11-05T23:26:20.951Z,6.55
2022-11-05T23:31:41.823Z,5.93
2022-11-05T23:37:03.214Z,6.15
2022-11-05T23:42:25.796Z,5.63
2022-11-05T23:47:46.629Z,7.10
2022-11-05T23:52:50.189Z,5.20
2022-11-05T23:57:55.168Z,5.90
